createdAt,value
2023-02-27T00:01:54.343Z,3.70
2023-02-27T00:04:21.125Z,3.70
2023-02-27T00:06:47.995Z,3.70
2023-02-27T00:09:14.789Z,3.70
2023-02-27T00:11:42.727Z,3.70
2023-02-27T00:14:09.994Z,3.70
2023-02-27T00:16:37.049Z,3.70
2023-02-27T00:19:04.955Z,3.70
2023-02-27T00:21:32.097Z,3.70
2023-02-27T00:23:59.014Z,3.70
2023-02-27T00:26:25.962Z,3.70
2023-02-27T00:28:52.760Z,3.70
2023-02-27T00:31:19.664Z,3.70
2023-02-27T00:33:46.580Z,3.70
2023-02-27T00:36:13.446Z,3.70
2023-02-27T00:38:40.249Z,3.70
2023-02-27T00:41:07.083Z,3.70
2023-02-27T00:43:33.851Z,3.70
2023-02-27T00:46:00.647Z,3.70
2023-02-27T00:48:27.420Z,3.70
2023-02-27T00:50:54.249Z,3.60
2023-02-27T00:53:21.051Z,3.60
2023-02-27T00:55:47.810Z,3.60
2023-02-27T00:58:14.594Z,3.60
2023-02-27T01:00:41.507Z,3.70
2023-02-27T01:03:08.376Z,3.70
2023-02-27T01:05:35.219Z,3.70
2023-02-27T01:08:01.987Z,3.60
2023-02-27T01:10:28.910Z,3.60
2023-02-27T01:12:55.706Z,3.60
2023-02-27T01:15:22.517Z,3.60
2023-02-27T01:17:49.385Z,3.50
2023-02-27T01:20:16.410Z,3.50
2023-02-27T01:22:43.192Z,3.50
2023-02-27T01:25:10.062Z,3.40
2023-02-27T01:27:36.876Z,3.40
2023-02-27T01:30:04.318Z,3.30
2023-02-27T01:32:31.286Z,3.30
2023-02-27T01:34:58.133Z,3.30
2023-02-27T01:37:24.938Z,3.20
2023-02-27T01:39:51.729Z,3.10
2023-02-27T01:42:20.942Z,3.20
2023-02-27T01:45:18.505Z,3.20
2023-02-27T01:47:48.366Z,3.20
2023-02-27T01:50:15.947Z,3.20
2023-02-27T01:52:44.030Z,3.20
2023-02-27T01:55:13.290Z,3.20
2023-02-27T01:57:41.470Z,3.10
2023-02-27T02:00:09.389Z,3.20
2023-02-27T02:02:40.883Z,3.10
2023-02-27T02:05:08.172Z,3.10
2023-02-27T02:07:36.448Z,3.10
2023-02-27T02:10:03.465Z,3.10
2023-02-27T02:12:34.065Z,3.20
2023-02-27T02:15:00.971Z,3.20
2023-02-27T02:17:40.363Z,3.20
2023-02-27T02:20:10.125Z,3.20
2023-02-27T02:22:43.072Z,3.30
2023-02-27T02:25:19.167Z,3.30
2023-02-27T02:27:51.938Z,3.30
2023-02-27T02:30:18.700Z,3.40
2023-02-27T02:32:48.668Z,3.40
2023-02-27T02:35:24.577Z,3.40
2023-02-27T02:37:51.522Z,3.50
2023-02-27T02:40:18.528Z,3.50
2023-02-27T02:42:53.588Z,3.60
2023-02-27T02:45:28.102Z,3.60
2023-02-27T02:48:04.741Z,3.60
2023-02-27T02:50:49.573Z,3.60
2023-02-27T02:53:16.362Z,3.60
2023-02-27T02:55:52.274Z,3.60
2023-02-27T02:58:26.593Z,3.70
2023-02-27T03:00:56.663Z,3.60
2023-02-27T03:03:28.640Z,3.60
2023-02-27T03:06:02.656Z,3.60
2023-02-27T03:08:31.401Z,3.60
2023-02-27T03:10:59.795Z,3.60
2023-02-27T03:13:33.913Z,3.50
2023-02-27T03:16:18.361Z,3.60
2023-02-27T03:18:53.121Z,3.60
2023-02-27T03:21:27.243Z,3.50
2023-02-27T03:23:56.331Z,3.60
2023-02-27T03:26:24.953Z,3.60
2023-02-27T03:29:06.614Z,3.60
2023-02-27T03:31:53.767Z,3.60
2023-02-27T03:34:49.954Z,3.60
2023-02-27T03:37:16.698Z,3.60
2023-02-27T03:39:47.849Z,3.70
2023-02-27T03:42:17.686Z,3.60
2023-02-27T03:44:47.269Z,3.60
2023-02-27T03:47:14.059Z,3.70
2023-02-27T03:49:40.930Z,3.70
2023-02-27T03:52:07.756Z,3.70
2023-02-27T03:54:39.693Z,3.70
2023-02-27T03:57:07.668Z,3.70
2023-02-27T03:59:36.075Z,3.70
2023-02-27T04:02:03.255Z,3.70
2023-02-27T04:04:33.798Z,3.80
2023-02-27T04:07:25.072Z,3.70
2023-02-27T04:10:08.924Z,3.80
2023-02-27T04:12:53.193Z,3.80
2023-02-27T04:15:26.163Z,3.80
2023-02-27T04:18:00.021Z,3.80
2023-02-27T04:20:32.974Z,3.80
2023-02-27T04:23:05.644Z,3.80
2023-02-27T04:25:44.591Z,3.90
2023-02-27T04:28:17.684Z,3.90
2023-02-27T04:30:46.556Z,3.90
2023-02-27T04:33:16.587Z,4.00
2023-02-27T04:35:59.249Z,4.00
2023-02-27T04:38:26.004Z,4.00
2023-02-27T04:41:22.505Z,4.00
2023-02-27T04:43:49.930Z,4.00
2023-02-27T04:46:17.760Z,4.00
2023-02-27T04:49:02.984Z,4.00
2023-02-27T04:51:35.112Z,4.00
2023-02-27T04:54:07.330Z,4.00
2023-02-27T04:56:35.858Z,4.00
2023-02-27T04:59:08.779Z,4.00
2023-02-27T05:01:41.420Z,4.10
2023-02-27T05:04:10.606Z,4.10
2023-02-27T05:06:39.813Z,4.10
2023-02-27T05:09:09.988Z,4.10
2023-02-27T05:11:44.153Z,4.20
2023-02-27T05:14:18.081Z,4.20
2023-02-27T05:16:47.867Z,4.10
2023-02-27T05:19:14.967Z,4.10
2023-02-27T05:21:57.565Z,4.10
2023-02-27T05:24:27.205Z,4.10
2023-02-27T05:27:03.334Z,4.10
2023-02-27T05:29:53.507Z,4.00
2023-02-27T05:32:29.746Z,4.10
2023-02-27T05:34:56.553Z,4.10
2023-02-27T05:37:25.425Z,4.00
2023-02-27T05:39:53.364Z,4.00
2023-02-27T05:42:25.000Z,4.10
2023-02-27T05:44:54.929Z,4.10
2023-02-27T05:47:23.644Z,4.10
2023-02-27T05:49:56.203Z,4.00
2023-02-27T05:52:24.454Z,4.00
2023-02-27T05:55:00.366Z,4.10
2023-02-27T05:57:42.323Z,4.10
2023-02-27T06:00:14.121Z,4.10
2023-02-27T06:02:41.616Z,4.00
2023-02-27T06:05:08.574Z,4.00
2023-02-27T06:07:36.024Z,4.10
2023-02-27T06:10:03.993Z,4.00
2023-02-27T06:12:30.818Z,4.00
2023-02-27T06:14:57.596Z,3.90
2023-02-27T06:17:24.402Z,3.90
2023-02-27T06:19:51.180Z,3.90
2023-02-27T06:22:17.992Z,3.80
2023-02-27T06:24:44.829Z,3.80
2023-02-27T06:27:11.681Z,3.80
2023-02-27T06:29:38.480Z,3.90
2023-02-27T06:32:05.340Z,3.90
2023-02-27T06:34:32.219Z,3.90
2023-02-27T06:36:59.025Z,3.90
2023-02-27T06:39:25.828Z,4.00
2023-02-27T06:41:52.994Z,3.90
2023-02-27T06:44:20.112Z,3.90
2023-02-27T06:46:46.985Z,3.90
2023-02-27T06:49:13.821Z,3.90
2023-02-27T06:51:40.724Z,3.90
2023-02-27T06:54:08.190Z,3.90
2023-02-27T06:56:35.010Z,4.00
2023-02-27T06:59:01.948Z,4.00
2023-02-27T07:01:28.814Z,3.90
2023-02-27T07:03:55.876Z,3.90
2023-02-27T07:07:32.814Z,3.90
2023-02-27T07:09:09.766Z,3.90
2023-02-27T07:11:36.623Z,4.00
2023-02-27T07:14:03.779Z,4.10
2023-02-27T07:16:30.725Z,4.00
2023-02-27T07:18:57.543Z,4.10
2023-02-27T07:21:24.519Z,4.10
2023-02-27T07:23:51.574Z,4.10
2023-02-27T07:26:18.816Z,4.10
2023-02-27T07:28:45.624Z,4.10
2023-02-27T07:31:12.552Z,4.00
2023-02-27T07:33:39.746Z,4.10
2023-02-27T07:36:06.765Z,4.10
2023-02-27T07:38:33.645Z,4.10
2023-02-27T07:41:00.483Z,4.20
2023-02-27T07:43:27.358Z,4.20
2023-02-27T07:45:54.359Z,4.20
2023-02-27T07:48:21.192Z,4.20
2023-02-27T07:50:48.041Z,4.20
2023-02-27T07:53:15.000Z,4.20
2023-02-27T07:55:41.885Z,4.20
2023-02-27T07:58:08.661Z,4.20
2023-02-27T08:00:35.462Z,4.30
2023-02-27T08:03:02.463Z,4.30
2023-02-27T08:05:32.443Z,4.30
2023-02-27T08:07:59.278Z,4.40
2023-02-27T08:10:26.141Z,4.40
2023-02-27T08:12:52.989Z,4.40
2023-02-27T08:15:20.020Z,4.40
2023-02-27T08:17:47.297Z,4.50
2023-02-27T08:20:14.842Z,4.50
2023-02-27T08:22:41.891Z,4.50
2023-02-27T08:25:11.215Z,4.50
2023-02-27T08:27:38.569Z,4.50
2023-02-27T08:30:09.193Z,4.50
2023-02-27T08:32:46.044Z,4.60
2023-02-27T08:41:17.973Z,4.70
2023-02-27T08:50:28.636Z,4.80
2023-02-27T08:53:04.178Z,4.80
2023-02-27T08:55:37.212Z,4.80
2023-02-27T09:01:25.816Z,4.90
2023-02-27T09:04:02.735Z,4.90
2023-02-27T09:09:19.054Z,4.90
2023-02-27T09:12:20.696Z,5.00
2023-02-27T09:14:57.395Z,5.10
2023-02-27T09:20:14.569Z,5.00
2023-02-27T09:22:44.219Z,5.10
2023-02-27T09:25:13.095Z,5.10
2023-02-27T09:27:41.569Z,5.10
2023-02-27T09:32:43.919Z,5.30
2023-02-27T09:35:10.804Z,5.30
2023-02-27T09:37:37.653Z,5.20
2023-02-27T09:40:07.400Z,5.30
2023-02-27T09:42:38.657Z,5.30
2023-02-27T09:45:07.519Z,5.30
2023-02-27T09:47:40.034Z,5.40
2023-02-27T09:50:25.680Z,5.40
2023-02-27T09:52:52.652Z,5.40
2023-02-27T09:55:22.095Z,5.40
2023-02-27T10:18:48.347Z,5.70
2023-02-27T10:24:07.556Z,5.90
2023-02-27T10:26:44.096Z,6.00
2023-02-27T10:29:33.985Z,6.00
2023-02-27T10:35:09.498Z,6.10
2023-02-27T10:37:37.425Z,6.10
2023-02-27T10:40:07.712Z,6.00
2023-02-27T10:42:39.147Z,6.00
2023-02-27T10:45:12.475Z,6.10
2023-02-27T10:47:39.949Z,6.10
2023-02-27T10:50:22.459Z,6.10
2023-02-27T10:52:52.586Z,6.10
2023-02-27T10:55:24.457Z,6.20
2023-02-27T10:58:01.296Z,6.20
2023-02-27T11:00:42.340Z,6.20
2023-02-27T11:03:20.396Z,6.30
2023-02-27T11:05:53.385Z,6.30
2023-02-27T11:08:25.504Z,6.30
2023-02-27T11:10:57.400Z,6.30
2023-02-27T11:13:25.982Z,6.30
2023-02-27T11:16:08.065Z,6.30
2023-02-27T11:18:35.799Z,6.40
2023-02-27T11:21:29.628Z,6.30
2023-02-27T11:24:01.328Z,6.40
2023-02-27T11:26:31.305Z,6.40
2023-02-27T11:29:04.266Z,6.50
2023-02-27T11:31:32.911Z,6.50
2023-02-27T11:34:01.180Z,6.50
2023-02-27T11:36:42.195Z,6.50
2023-02-27T11:39:20.942Z,6.40
2023-02-27T11:41:48.415Z,6.40
2023-02-27T11:44:30.520Z,6.50
2023-02-27T11:47:30.513Z,6.50
2023-02-27T11:52:32.329Z,6.60
2023-02-27T11:55:01.134Z,6.70
2023-02-27T11:57:31.109Z,6.70
2023-02-27T12:00:16.924Z,6.70
2023-02-27T12:02:56.723Z,6.70
2023-02-27T12:05:30.691Z,6.70
2023-02-27T12:08:00.775Z,6.80
2023-02-27T12:10:47.658Z,6.80
2023-02-27T12:13:21.910Z,6.80
2023-02-27T12:19:30.670Z,6.90
2023-02-27T12:22:01.062Z,6.90
2023-02-27T12:30:58.494Z,7.00
2023-02-27T12:33:48.694Z,7.00
2023-02-27T12:36:15.915Z,6.90
2023-02-27T12:38:43.466Z,7.00
2023-02-27T12:41:13.652Z,7.00
2023-02-27T12:43:58.539Z,7.00
2023-02-27T12:46:31.928Z,7.00
2023-02-27T12:48:58.958Z,7.00
2023-02-27T12:51:39.526Z,6.90
2023-02-27T12:54:09.445Z,6.90
2023-02-27T12:56:44.423Z,6.90
2023-02-27T12:59:30.355Z,6.90
2023-02-27T13:02:16.042Z,7.00
2023-02-27T13:04:47.806Z,7.00
2023-02-27T13:07:30.383Z,6.90
2023-02-27T13:10:03.490Z,7.00
2023-02-27T13:12:33.405Z,7.00
2023-02-27T13:15:04.347Z,7.00
2023-02-27T13:17:35.030Z,7.00
2023-02-27T13:20:22.768Z,6.90
2023-02-27T13:22:55.865Z,7.00
2023-02-27T13:25:23.828Z,7.10
2023-02-27T13:27:50.718Z,7.00
2023-02-27T13:30:35.485Z,7.00
2023-02-27T13:33:22.631Z,7.00
2023-02-27T13:36:08.603Z,7.00
2023-02-27T13:38:55.863Z,7.10
2023-02-27T13:41:25.680Z,7.10
2023-02-27T13:43:56.770Z,7.10
2023-02-27T13:46:30.749Z,7.10
2023-02-27T13:49:03.802Z,7.10
2023-02-27T13:51:37.554Z,7.10
2023-02-27T13:54:13.670Z,7.00
2023-02-27T13:56:48.279Z,7.10
2023-02-27T13:59:30.109Z,7.20
2023-02-27T14:01:58.809Z,7.10
2023-02-27T14:04:27.810Z,7.10
2023-02-27T14:07:03.921Z,7.10
2023-02-27T14:09:36.250Z,7.20
2023-02-27T14:12:04.514Z,7.10
2023-02-27T14:14:45.214Z,7.10
2023-02-27T14:17:35.494Z,7.20
2023-02-27T14:20:30.206Z,7.10
2023-02-27T14:23:26.534Z,7.10
2023-02-27T14:26:12.873Z,7.20
2023-02-27T14:28:47.433Z,7.20
2023-02-27T14:31:23.010Z,7.30
2023-02-27T14:33:54.226Z,7.20
2023-02-27T14:36:28.491Z,7.20
2023-02-27T14:38:56.559Z,7.20
2023-02-27T14:41:29.685Z,7.20
2023-02-27T14:43:57.754Z,7.20
2023-02-27T14:46:24.719Z,7.20
2023-02-27T14:48:56.997Z,7.20
2023-02-27T14:51:26.172Z,7.20
2023-02-27T14:54:08.167Z,7.20
2023-02-27T14:56:35.086Z,7.20
2023-02-27T14:59:04.635Z,7.30
2023-02-27T15:01:35.531Z,7.20
2023-02-27T15:04:04.857Z,7.20
2023-02-27T15:06:35.597Z,7.30
2023-02-27T15:09:04.023Z,7.20
2023-02-27T15:11:31.767Z,7.30
2023-02-27T15:14:01.295Z,7.30
2023-02-27T15:16:31.086Z,7.30
2023-02-27T15:19:03.842Z,7.30
2023-02-27T15:21:35.671Z,7.30
2023-02-27T15:24:05.338Z,7.30
2023-02-27T15:26:38.081Z,7.30
2023-02-27T15:29:05.921Z,7.30
2023-02-27T15:31:33.577Z,7.30
2023-02-27T15:34:01.872Z,7.30
2023-02-27T15:36:38.875Z,7.30
2023-02-27T15:39:25.919Z,7.30
2023-02-27T15:42:01.124Z,7.30
2023-02-27T15:44:30.818Z,7.30
2023-02-27T15:46:58.797Z,7.30
2023-02-27T15:49:26.170Z,7.30
2023-02-27T15:52:06.197Z,7.30
2023-02-27T15:54:35.459Z,7.30
2023-02-27T15:57:08.768Z,7.20
2023-02-27T15:59:37.331Z,7.20
2023-02-27T16:02:05.339Z,7.20
2023-02-27T16:04:33.440Z,7.20
2023-02-27T16:07:05.929Z,7.20
2023-02-27T16:09:36.862Z,7.20
2023-02-27T16:12:22.918Z,7.10
2023-02-27T16:14:52.862Z,7.20
2023-02-27T16:17:27.629Z,7.10
2023-02-27T16:19:55.232Z,7.10
2023-02-27T16:22:22.742Z,7.10
2023-02-27T16:24:50.034Z,7.10
2023-02-27T16:27:20.051Z,7.10
2023-02-27T16:29:47.207Z,7.10
2023-02-27T16:32:22.255Z,7.10
2023-02-27T16:34:49.130Z,7.10
2023-02-27T16:37:38.926Z,7.10
2023-02-27T16:40:19.671Z,7.10
2023-02-27T16:42:46.936Z,7.10
2023-02-27T16:45:24.470Z,7.10
2023-02-27T16:47:54.549Z,7.10
2023-02-27T16:50:22.189Z,7.00
2023-02-27T16:52:49.016Z,7.00
2023-02-27T16:55:15.857Z,7.00
2023-02-27T16:57:42.714Z,7.00
2023-02-27T17:00:13.939Z,7.00
2023-02-27T17:02:40.755Z,7.00
2023-02-27T17:05:08.431Z,7.00
2023-02-27T17:07:35.410Z,7.00
2023-02-27T17:10:02.284Z,7.00
2023-02-27T17:12:29.116Z,6.90
2023-02-27T17:14:56.399Z,6.90
2023-02-27T17:17:23.233Z,6.90
2023-02-27T17:19:50.138Z,6.90
2023-02-27T17:22:17.028Z,6.90
2023-02-27T17:24:43.810Z,6.90
2023-02-27T17:27:10.657Z,6.90
2023-02-27T17:29:38.614Z,6.80
2023-02-27T17:32:05.601Z,6.90
2023-02-27T17:34:32.600Z,6.80
2023-02-27T17:36:59.421Z,6.80
2023-02-27T17:39:26.296Z,6.80
2023-02-27T17:41:54.473Z,6.80
2023-02-27T17:44:21.525Z,6.80
2023-02-27T17:46:48.406Z,6.80
2023-02-27T17:49:15.443Z,6.80
2023-02-27T17:51:42.316Z,6.80
2023-02-27T17:54:09.275Z,6.80
2023-02-27T17:56:37.023Z,6.80
2023-02-27T17:59:04.690Z,6.70
2023-02-27T18:01:31.673Z,6.80
2023-02-27T18:03:58.555Z,6.80
2023-02-27T18:06:25.743Z,6.70
2023-02-27T18:08:52.896Z,6.70
2023-02-27T18:11:20.674Z,6.80
2023-02-27T18:13:48.008Z,6.70
2023-02-27T18:16:15.049Z,6.70
2023-02-27T18:18:42.639Z,6.70
2023-02-27T18:21:14.491Z,6.70
2023-02-27T18:23:41.817Z,6.70
2023-02-27T18:26:23.543Z,6.70
2023-02-27T18:28:56.712Z,6.60
2023-02-27T18:31:25.309Z,6.60
2023-02-27T18:33:52.509Z,6.60
2023-02-27T18:36:19.756Z,6.60
2023-02-27T18:38:46.639Z,6.60
2023-02-27T18:41:13.932Z,6.60
2023-02-27T18:43:41.776Z,6.60
2023-02-27T18:46:09.283Z,6.50
2023-02-27T18:48:36.148Z,6.50
2023-02-27T18:51:04.968Z,6.50
2023-02-27T18:53:32.450Z,6.50
2023-02-27T18:56:00.551Z,6.50
2023-02-27T18:58:27.370Z,6.50
2023-02-27T19:00:54.570Z,6.40
2023-02-27T19:03:21.522Z,6.40
2023-02-27T19:05:48.435Z,6.40
2023-02-27T19:08:15.678Z,6.40
2023-02-27T19:10:42.576Z,6.40
2023-02-27T19:13:11.842Z,6.40
2023-02-27T19:15:38.873Z,6.60
2023-02-27T19:18:07.032Z,6.60
2023-02-27T19:20:34.896Z,6.60
2023-02-27T19:23:01.798Z,6.50
2023-02-27T19:25:28.857Z,6.60
2023-02-27T19:27:56.991Z,6.50
2023-02-27T19:30:25.478Z,6.50
2023-02-27T19:32:52.831Z,6.50
2023-02-27T19:35:20.829Z,6.50
2023-02-27T19:37:48.938Z,6.50
2023-02-27T19:40:16.023Z,6.50
2023-02-27T19:42:44.690Z,6.40
2023-02-27T19:45:12.750Z,6.50
2023-02-27T19:47:39.646Z,6.50
2023-02-27T19:50:07.117Z,6.40
2023-02-27T19:52:37.477Z,6.40
2023-02-27T19:55:04.727Z,6.50
2023-02-27T19:57:32.774Z,6.40
2023-02-27T20:00:00.145Z,6.40
2023-02-27T20:02:28.101Z,6.40
2023-02-27T20:04:54.997Z,6.40
2023-02-27T20:07:22.088Z,6.40
2023-02-27T20:09:49.238Z,6.40
2023-02-27T20:12:16.093Z,6.30
2023-02-27T20:14:43.048Z,6.30
2023-02-27T20:17:10.035Z,6.40
2023-02-27T20:19:37.978Z,6.30
2023-02-27T20:22:05.161Z,6.30
2023-02-27T20:24:32.198Z,6.30
2023-02-27T20:27:00.268Z,6.30
2023-02-27T20:29:27.512Z,6.30
2023-02-27T20:31:55.678Z,6.30
2023-02-27T20:34:25.994Z,6.30
2023-02-27T20:36:54.737Z,6.20
2023-02-27T20:39:23.112Z,6.20
2023-02-27T20:41:50.274Z,6.30
2023-02-27T20:44:17.274Z,6.30
2023-02-27T20:46:44.205Z,6.20
2023-02-27T20:49:12.308Z,6.20
2023-02-27T20:51:39.747Z,6.20
2023-02-27T20:54:07.986Z,6.20
2023-02-27T20:56:36.832Z,6.20
2023-02-27T20:59:05.412Z,6.30
2023-02-27T21:01:32.768Z,6.40
2023-02-27T21:04:00.116Z,6.30
2023-02-27T21:06:27.144Z,6.30
2023-02-27T21:08:54.934Z,6.30
2023-02-27T21:11:24.941Z,6.20
2023-02-27T21:13:51.872Z,6.30
2023-02-27T21:16:19.312Z,6.20
2023-02-27T21:18:46.847Z,6.20
2023-02-27T21:21:16.875Z,6.30
2023-02-27T21:23:43.753Z,6.30
2023-02-27T21:26:15.942Z,6.20
2023-02-27T21:28:48.095Z,6.20
2023-02-27T21:31:15.506Z,6.20
2023-02-27T21:33:45.382Z,6.20
2023-02-27T21:36:12.291Z,6.30
2023-02-27T21:38:39.571Z,6.30
2023-02-27T21:41:07.934Z,6.30
2023-02-27T21:43:35.583Z,6.20
2023-02-27T21:46:10.093Z,6.20
2023-02-27T21:48:37.063Z,6.20
2023-02-27T21:51:04.071Z,6.20
2023-02-27T21:53:31.658Z,6.20
2023-02-27T21:56:05.693Z,6.10
2023-02-27T21:58:33.167Z,6.10
2023-02-27T22:01:00.107Z,6.10
2023-02-27T22:03:34.343Z,6.10
2023-02-27T22:06:02.143Z,6.10
2023-02-27T22:08:29.179Z,6.10
2023-02-27T22:10:57.039Z,6.10
2023-02-27T22:13:24.141Z,6.10
2023-02-27T22:15:51.053Z,6.10
2023-02-27T22:18:17.876Z,6.20
2023-02-27T22:20:44.689Z,6.20
2023-02-27T22:23:11.646Z,6.20
2023-02-27T22:25:38.715Z,6.20
2023-02-27T22:28:05.639Z,6.20
2023-02-27T22:30:32.477Z,6.20
2023-02-27T22:32:59.266Z,6.30
2023-02-27T22:35:26.182Z,6.30
2023-02-27T22:37:53.172Z,6.30
2023-02-27T22:40:20.451Z,6.30
2023-02-27T22:42:48.243Z,6.30
2023-02-27T22:45:15.117Z,6.30
2023-02-27T22:47:42.121Z,6.30
2023-02-27T22:50:09.408Z,6.30
2023-02-27T22:52:36.674Z,6.30
2023-02-27T22:55:03.833Z,6.30
2023-02-27T22:57:30.839Z,6.30
2023-02-27T22:59:57.656Z,6.30
2023-02-27T23:02:24.547Z,6.30
2023-02-27T23:04:51.384Z,6.30
2023-02-27T23:07:18.182Z,6.30
2023-02-27T23:09:45.050Z,6.20
2023-02-27T23:12:11.860Z,6.30
2023-02-27T23:14:38.874Z,6.30
2023-02-27T23:17:05.671Z,6.30
2023-02-27T23:19:33.215Z,6.30
2023-02-27T23:22:00.045Z,6.30
2023-02-27T23:24:26.850Z,6.30
2023-02-27T23:26:53.712Z,6.30
2023-02-27T23:29:20.648Z,6.30
2023-02-27T23:31:48.048Z,6.30
2023-02-27T23:34:14.980Z,6.30
2023-02-27T23:36:41.853Z,6.30
2023-02-27T23:39:08.698Z,6.30
2023-02-27T23:41:35.745Z,6.30
2023-02-27T23:44:02.611Z,6.30
2023-02-27T23:46:30.747Z,6.30
2023-02-27T23:49:01.208Z,6.20
2023-02-27T23:51:30.306Z,6.30
2023-02-27T23:53:57.852Z,6.30
2023-02-27T23:56:26.166Z,6.30
2023-02-27T23:58:55.115Z,6.30
